Time;durP1;ratioP1;P1;durP2;ratioP2;P2;SDS_P1;SDS_P2;PMS_P1;PMS_P2;Temp;Humidity;BMP_temperature;BMP_pressure;BME280_temperature;BME280_humidity;BME280_pressure;Samples;Min_cycle;Max_cycle;Signal;HPM_P1;HPM_P2
2023/07/28 00:01:58;92311.00;0.31;160.30;0.00;0.00;0.62;;;;;21.70;1.00;;;;;;2276511;61;1845;-83
2023/07/28 00:04:25;28515.00;0.10;50.01;0.00;0.00;0.62;;;;;21.60;1.00;;;;;;2276561;61;978;-88
2023/07/28 00:06:52;68795.00;0.23;119.68;148.00;0.00;0.88;;;;;21.70;1.00;;;;;;2276584;61;1091;-85
2023/07/28 00:09:20;0.00;0.00;0.62;0.00;0.00;0.62;;;;;21.60;1.00;;;;;;2276503;61;1095;-87
2023/07/28 00:11:47;0.00;0.00;0.62;0.00;0.00;0.62;;;;;21.60;1.00;;;;;;2276454;61;1381;-86
2023/07/28 00:14:14;114001.00;0.38;197.73;0.00;0.00;0.62;;;;;21.60;1.00;;;;;;2276400;61;1919;-85
2023/07/28 00:16:41;63503.00;0.21;110.53;0.00;0.00;0.62;;;;;21.50;1.00;;;;;;2276501;61;1126;-85
2023/07/28 00:19:08;130707.00;0.44;226.55;0.00;0.00;0.62;;;;;21.40;1.00;;;;;;2276387;61;1111;-86
2023/07/28 00:21:35;123923.00;0.41;214.85;0.00;0.00;0.62;;;;;21.40;1.40;;;;;;2276290;61;1050;-86
2023/07/28 00:24:02;89863.00;0.30;156.07;0.00;0.00;0.62;;;;;21.30;1.00;;;;;;2276498;61;1107;-85
2023/07/28 00:26:30;51511.00;0.17;89.80;0.00;0.00;0.62;;;;;21.20;1.20;;;;;;2276319;61;1061;-88
2023/07/28 00:28:58;104938.00;0.35;182.09;0.00;0.00;0.62;;;;;21.30;1.00;;;;;;2276485;61;1762;-85
2023/07/28 00:31:25;68332.00;0.23;118.88;0.00;0.00;0.62;;;;;21.10;1.70;;;;;;2276414;61;1770;-86
2023/07/28 00:33:52;33223.00;0.11;58.16;0.00;0.00;0.62;;;;;21.10;1.00;;;;;;2276359;61;2078;-84
2023/07/28 00:36:19;28444.00;0.09;49.89;0.00;0.00;0.62;;;;;21.20;1.20;;;;;;2276471;61;1616;-89
2023/07/28 00:38:46;87326.00;0.29;151.69;0.00;0.00;0.62;;;;;21.40;1.00;;;;;;2276493;61;1014;-87
2023/07/28 00:41:13;84062.00;0.28;146.05;0.00;0.00;0.62;;;;;21.50;1.00;;;;;;2276420;61;1718;-90
2023/07/28 00:43:41;187195.00;0.62;323.88;0.00;0.00;0.62;;;;;21.50;1.00;;;;;;2276233;61;1290;-85
2023/07/28 00:46:09;286110.00;0.95;494.04;45971.00;0.15;80.22;;;;;21.50;1.00;;;;;;2276385;61;1456;-88
2023/07/28 00:48:36;96751.00;0.32;167.96;0.00;0.00;0.62;;;;;21.60;1.00;;;;;;2276397;61;949;-89
2023/07/28 00:51:04;12777.00;0.04;22.76;0.00;0.00;0.62;;;;;21.40;1.00;;;;;;2276176;61;1044;-88
2023/07/28 00:53:32;26944.00;0.09;47.29;0.00;0.00;0.62;;;;;21.10;1.00;;;;;;2276330;61;2447;-86
2023/07/28 00:55:59;20889.00;0.07;36.81;0.00;0.00;0.62;;;;;21.00;1.10;;;;;;2276071;61;1039;-85
2023/07/28 00:58:25;256862.00;0.86;443.75;96853.00;0.32;168.14;;;;;20.90;1.00;;;;;;2276437;61;936;-85
2023/07/28 01:00:54;79962.00;0.27;138.97;0.00;0.00;0.62;;;;;20.90;1.00;;;;;;2276230;61;1043;-88
2023/07/28 01:03:23;124471.00;0.41;215.79;0.00;0.00;0.62;;;;;21.10;1.00;;;;;;2276328;61;1307;-85
2023/07/28 01:06:00;103310.00;0.34;179.28;0.00;0.00;0.62;;;;;21.00;1.00;;;;;;2276338;61;1598;-86
2023/07/28 01:08:31;76515.00;0.26;133.02;0.00;0.00;0.62;;;;;21.10;1.10;;;;;;2276267;61;1075;-88
2023/07/28 01:10:58;161232.00;0.54;279.16;0.00;0.00;0.62;;;;;21.20;1.00;;;;;;2276332;61;1045;-88
2023/07/28 01:13:25;208251.00;0.69;360.13;31295.00;0.10;54.82;;;;;21.10;1.00;;;;;;2276342;61;1998;-84
2023/07/28 01:15:52;122780.00;0.41;212.88;0.00;0.00;0.62;;;;;20.90;1.80;;;;;;2276232;61;1074;-89
2023/07/28 01:18:20;116006.00;0.39;201.19;0.00;0.00;0.62;;;;;20.80;1.80;;;;;;2276331;61;1743;-84
2023/07/28 01:20:49;69033.00;0.23;120.09;0.00;0.00;0.62;;;;;21.00;1.00;;;;;;2276260;61;1074;-88
2023/07/28 01:23:20;0.00;0.00;0.62;0.00;0.00;0.62;;;;;21.10;1.00;;;;;;2276165;61;1392;-85
2023/07/28 01:26:06;160023.00;0.53;277.08;0.00;0.00;0.62;;;;;21.30;1.00;;;;;;2276294;61;2224;-87
2023/07/28 01:28:35;309316.00;1.03;533.93;0.00;0.00;0.62;;;;;21.20;1.00;;;;;;2276310;61;1026;-85
2023/07/28 01:31:04;40288.00;0.13;70.39;0.00;0.00;0.62;;;;;21.10;1.00;;;;;;2276374;61;973;-85
2023/07/28 01:33:31;0.00;0.00;0.62;0.00;0.00;0.62;;;;;20.90;1.40;;;;;;2276231;61;1920;-87
2023/07/28 01:35:58;0.00;0.00;0.62;0.00;0.00;0.62;;;;;21.10;1.00;;;;;;2275954;61;941;-86
2023/07/28 01:38:25;0.00;0.00;0.62;0.00;0.00;0.62;;;;;21.10;1.10;;;;;;2276222;61;956;-88
2023/07/28 01:40:52;98662.00;0.33;171.26;0.00;0.00;0.62;;;;;20.90;1.00;;;;;;2276244;61;1045;-87
2023/07/28 01:43:19;0.00;0.00;0.62;0.00;0.00;0.62;;;;;20.80;1.40;;;;;;2276135;61;1284;-88
2023/07/28 01:45:47;0.00;0.00;0.62;0.00;0.00;0.62;;;;;20.50;2.10;;;;;;2275841;61;1033;-86
2023/07/28 01:48:14;0.00;0.00;0.62;0.00;0.00;0.62;;;;;20.60;1.90;;;;;;2276046;61;1016;-84
2023/07/28 01:50:41;107537.00;0.36;186.58;0.00;0.00;0.62;;;;;20.50;1.80;;;;;;2270929;61;1577;-83
2023/07/28 01:53:08;144519.00;0.48;250.36;0.00;0.00;0.62;;;;;20.40;2.50;;;;;;2270674;61;1384;-83
2023/07/28 01:55:35;0.00;0.00;0.62;0.00;0.00;0.62;;;;;20.70;1.40;;;;;;2270540;61;2017;-83
2023/07/28 01:58:03;87407.00;0.29;151.83;9752.00;0.03;17.52;;;;;20.70;2.20;;;;;;2270607;61;1121;-83
2023/07/28 02:00:29;14980.00;0.05;26.58;0.00;0.00;0.62;;;;;20.70;1.50;;;;;;2270269;61;1200;-83
2023/07/28 02:03:01;0.00;0.00;0.62;0.00;0.00;0.62;;;;;20.70;1.20;;;;;;2270617;61;2227;-83
2023/07/28 02:05:28;165741.00;0.55;286.93;47944.00;0.16;83.63;;;;;20.70;1.60;;;;;;2271063;61;1189;-83
2023/07/28 02:07:55;0.00;0.00;0.62;0.00;0.00;0.62;;;;;20.60;2.30;;;;;;2270663;61;1125;-85
2023/07/28 02:10:23;0.00;0.00;0.62;0.00;0.00;0.62;;;;;20.70;1.60;;;;;;2270512;61;1112;-83
2023/07/28 02:12:50;0.00;0.00;0.62;0.00;0.00;0.62;;;;;20.80;1.00;;;;;;2270453;61;1359;-83
2023/07/28 02:15:17;0.00;0.00;0.62;0.00;0.00;0.62;;;;;21.20;1.00;;;;;;2270255;61;1935;-84
2023/07/28 02:17:44;50375.00;0.17;87.83;0.00;0.00;0.62;;;;;21.20;1.00;;;;;;2270912;61;1164;-83
2023/07/28 02:20:15;51259.00;0.17;89.36;0.00;0.00;0.62;;;;;21.20;1.00;;;;;;2270932;61;1189;-83
2023/07/28 02:22:42;141070.00;0.47;244.42;21843.00;0.07;38.46;;;;;20.90;1.00;;;;;;2270690;61;1415;-83
2023/07/28 02:25:09;0.00;0.00;0.62;0.00;0.00;0.62;;;;;20.90;1.00;;;;;;2270682;61;1088;-83
2023/07/28 02:27:36;0.00;0.00;0.62;0.00;0.00;0.62;;;;;20.90;1.00;;;;;;2270830;61;1129;-83
2023/07/28 02:30:04;0.00;0.00;0.62;0.00;0.00;0.62;;;;;20.70;1.80;;;;;;2270461;61;1128;-84
2023/07/28 02:32:32;0.00;0.00;0.62;0.00;0.00;0.62;;;;;20.80;1.00;;;;;;2270679;61;2185;-84
2023/07/28 02:34:59;0.00;0.00;0.62;0.00;0.00;0.62;;;;;21.00;1.00;;;;;;2270644;61;2185;-84
2023/07/28 02:37:27;0.00;0.00;0.62;0.00;0.00;0.62;;;;;20.90;1.00;;;;;;2270721;61;1322;-83
2023/07/28 02:39:54;9284.00;0.03;16.71;0.00;0.00;0.62;;;;;20.90;1.30;;;;;;2270852;61;1168;-84
2023/07/28 02:42:21;3197.00;0.01;6.16;0.00;0.00;0.62;;;;;20.90;1.10;;;;;;2270639;61;1727;-84
2023/07/28 02:44:48;0.00;0.00;0.62;0.00;0.00;0.62;;;;;20.90;1.20;;;;;;2270279;61;1110;-84
2023/07/28 02:47:14;48919.00;0.16;85.32;0.00;0.00;0.62;;;;;21.00;1.30;;;;;;2270171;61;1223;-84
2023/07/28 02:49:43;14580.00;0.05;25.88;0.00;0.00;0.62;;;;;20.80;1.10;;;;;;2270600;61;1086;-84
2023/07/28 02:55:33;16241.00;0.05;28.76;0.00;0.00;0.62;;;;;20.90;1.40;;;;;;2270325;61;2014;-85
2023/07/28 02:58:00;0.00;0.00;0.62;0.00;0.00;0.62;;;;;20.90;1.90;;;;;;2271997;61;1170;-85
2023/07/28 03:17:45;1190871.00;3.97;2073.72;0.00;0.00;0.62;;;;;20.80;1.10;;;;;;2331255;39;3691;-84
2023/07/28 03:57:41;1127856.00;3.76;1960.31;684.00;0.00;1.81;;;;;21.30;1.00;;;;;;2275297;61;1008;-88
2023/07/28 04:02:36;1101039.00;3.67;1912.28;0.00;0.00;0.62;;;;;21.40;1.00;;;;;;2507682;55;3547;31
2023/07/28 04:10:00;1027997.00;3.43;1782.12;0.00;0.00;0.62;;;;;21.20;1.10;;;;;;2490211;40;3612;31
2023/07/28 04:57:07;1132199.00;3.77;1968.10;0.00;0.00;0.62;;;;;22.40;1.00;;;;;;2506696;55;3629;31
2023/07/28 05:16:58;1247043.00;4.16;2175.51;0.00;0.00;0.62;;;;;22.90;1.00;;;;;;2464631;40;3617;-90
2023/07/28 05:21:55;1385093.00;4.62;2428.70;0.00;0.00;0.62;;;;;23.00;1.00;;;;;;2475111;55;3598;31
2023/07/28 05:54:07;956507.00;3.19;1655.59;72586.00;0.24;126.23;;;;;23.10;1.00;;;;;;2332731;39;3116;31
2023/07/28 06:56:04;1492838.00;4.98;2629.65;17425.00;0.06;30.81;;;;;23.70;1.00;;;;;;2282517;61;1883;-89
2023/07/28 07:03:30;1085177.00;3.62;1883.94;17273.00;0.06;30.55;;;;;23.40;2.90;;;;;;2278241;61;1279;-87
2023/07/28 07:06:00;155509.00;0.52;269.30;0.00;0.00;0.62;;;;;23.70;3.30;;;;;;2276868;61;1781;-89
2023/07/28 08:30:07;945512.00;3.15;1636.20;0.00;0.00;0.62;;;;;27.10;1.00;;;;;;2274873;61;1308;-89
2023/07/28 09:49:23;1297913.00;4.33;2268.29;44157.00;0.15;77.08;;;;;29.30;1.00;;;;;;2468561;39;3732;31
2023/07/28 10:14:03;1165235.00;3.88;2027.49;0.00;0.00;0.62;;;;;30.70;1.00;;;;;;2395022;39;3448;-89
2023/07/28 11:45:55;1287475.00;4.29;2249.20;0.00;0.00;0.62;;;;;26.70;1.00;;;;;;2265503;61;1357;-85
2023/07/28 11:48:22;179519.00;0.60;310.66;0.00;0.00;0.62;;;;;27.00;1.00;;;;;;2267955;61;1610;-85
2023/07/28 11:53:16;736822.00;2.46;1271.15;0.00;0.00;0.62;;;;;27.30;1.00;;;;;;2271689;61;1409;-84
2023/07/28 11:55:44;0.00;0.00;0.62;0.00;0.00;0.62;;;;;27.00;1.00;;;;;;2270861;61;2005;-85
2023/07/28 11:58:13;85666.00;0.29;148.82;0.00;0.00;0.62;;;;;27.10;1.00;;;;;;2271152;61;1313;-84
2023/07/28 12:00:42;130298.00;0.43;225.84;0.00;0.00;0.62;;;;;27.20;1.00;;;;;;2271101;61;1698;-84
2023/07/28 12:03:12;0.00;0.00;0.62;0.00;0.00;0.62;;;;;27.60;1.00;;;;;;2272237;61;1317;-87
2023/07/28 12:05:40;121012.00;0.40;209.83;0.00;0.00;0.62;;;;;27.80;1.00;;;;;;2272222;61;1105;-86
2023/07/28 12:10:37;452463.00;1.51;780.02;0.00;0.00;0.62;;;;;27.70;1.00;;;;;;2274129;61;1364;-86
2023/07/28 12:13:06;49608.00;0.17;86.51;0.00;0.00;0.62;;;;;27.80;1.00;;;;;;2272100;61;1336;-85
2023/07/28 12:18:11;824867.00;2.75;1424.53;20724.00;0.07;36.52;;;;;27.80;1.00;;;;;;2354107;55;3582;-85
2023/07/28 12:20:40;110892.00;0.37;192.37;0.00;0.00;0.62;;;;;28.00;1.00;;;;;;2273827;61;1225;-85
2023/07/28 12:23:08;403949.00;1.35;696.59;47730.00;0.16;83.26;;;;;28.30;1.00;;;;;;2273578;61;1347;-85
2023/07/28 12:25:36;353444.00;1.18;609.78;14847.00;0.05;26.35;;;;;28.10;1.00;;;;;;2273109;61;1173;-85
2023/07/28 12:28:04;104923.00;0.35;182.07;0.00;0.00;0.62;;;;;28.20;1.00;;;;;;2273174;61;1220;-85
2023/07/28 12:30:31;132475.00;0.44;229.60;0.00;0.00;0.62;;;;;28.10;1.00;;;;;;2273652;61;2157;-85
2023/07/28 12:32:58;248856.00;0.83;429.98;0.00;0.00;0.62;;;;;28.10;1.00;;;;;;2274093;61;1332;-85
2023/07/28 12:35:30;198506.00;0.66;343.35;0.00;0.00;0.62;;;;;28.50;1.00;;;;;;2273790;61;1923;-84
2023/07/28 12:37:59;51058.00;0.17;89.02;0.00;0.00;0.62;;;;;28.50;1.00;;;;;;2273615;61;1236;-85
2023/07/28 12:40:29;104809.00;0.35;181.87;0.00;0.00;0.62;;;;;28.50;1.00;;;;;;2273728;61;1457;-85
2023/07/28 12:42:56;0.00;0.00;0.62;0.00;0.00;0.62;;;;;28.30;1.00;;;;;;2273805;61;1371;-85
2023/07/28 12:45:25;0.00;0.00;0.62;0.00;0.00;0.62;;;;;27.80;1.00;;;;;;2273977;61;1151;-85
2023/07/28 12:47:52;0.00;0.00;0.62;0.00;0.00;0.62;;;;;27.80;1.00;;;;;;2274275;61;1184;-84
2023/07/28 12:50:20;243308.00;0.81;420.44;0.00;0.00;0.62;;;;;27.70;1.00;;;;;;2274069;61;1634;-85
2023/07/28 12:52:48;190169.00;0.63;329.00;0.00;0.00;0.62;;;;;28.00;1.00;;;;;;2274590;61;1588;-85
2023/07/28 12:55:16;143415.00;0.48;248.46;0.00;0.00;0.62;;;;;28.20;1.00;;;;;;2274675;61;2018;-85
2023/07/28 12:57:43;91849.00;0.31;159.50;0.00;0.00;0.62;;;;;28.80;1.00;;;;;;2275334;61;1138;-85
2023/07/28 13:02:38;777193.00;2.59;1341.38;0.00;0.00;0.62;;;;;28.70;1.00;;;;;;2274516;61;1404;-89
2023/07/28 13:07:33;704628.00;2.35;1215.26;0.00;0.00;0.62;;;;;28.70;1.00;;;;;;2274246;61;1398;-87
2023/07/28 13:10:03;344907.00;1.15;595.11;0.00;0.00;0.62;;;;;28.80;1.00;;;;;;2272675;61;996;-90
2023/07/28 13:12:30;366020.00;1.22;631.40;0.00;0.00;0.62;;;;;28.80;1.00;;;;;;2272524;61;1502;-88
2023/07/28 13:14:56;517165.00;1.72;891.38;13668.00;0.05;24.30;;;;;29.10;1.00;;;;;;2272664;61;1005;-89
2023/07/28 13:17:23;552069.00;1.84;951.53;11384.00;0.04;20.35;;;;;28.90;1.00;;;;;;2272518;61;2188;-89
2023/07/28 13:19:51;431279.00;1.44;743.59;22002.00;0.07;38.74;;;;;28.90;1.00;;;;;;2272640;61;1111;-87
2023/07/28 13:22:18;857394.00;2.86;1481.41;133318.00;0.44;231.05;;;;;29.10;1.00;;;;;;2272519;61;2201;-87
2023/07/28 13:24:45;619952.00;2.07;1068.68;23502.00;0.08;41.33;;;;;29.10;1.00;;;;;;2272650;61;1024;-88
2023/07/28 13:27:13;543480.00;1.81;936.72;0.00;0.00;0.62;;;;;29.10;1.00;;;;;;2272385;61;2015;-87
2023/07/28 13:29:40;347894.00;1.16;600.24;0.00;0.00;0.62;;;;;29.10;1.00;;;;;;2272527;61;1239;-89
2023/07/28 13:32:17;418775.00;1.40;722.08;23738.00;0.08;41.74;;;;;29.10;1.00;;;;;;2272534;61;1623;-88
2023/07/28 13:34:44;277956.00;0.93;480.02;8571.00;0.03;15.47;;;;;29.00;1.00;;;;;;2272609;61;2242;-88
2023/07/28 13:37:11;200489.00;0.67;346.77;0.00;0.00;0.62;;;;;29.00;1.00;;;;;;2272443;61;1997;-89
2023/07/28 13:39:38;346652.00;1.16;598.11;35545.00;0.12;62.18;;;;;28.80;1.00;;;;;;2272634;61;986;-89
2023/07/28 13:42:05;731919.00;2.44;1262.64;26383.00;0.09;46.32;;;;;28.70;1.00;;;;;;2272553;61;1285;-89
2023/07/28 13:47:01;776548.00;2.59;1340.25;17528.00;0.06;30.99;;;;;28.70;1.00;;;;;;2273862;61;1303;-90
2023/07/28 13:49:28;592116.00;1.97;1020.61;534.00;0.00;1.55;;;;;28.60;1.00;;;;;;2272504;61;942;-86
2023/07/28 13:54:24;889389.00;2.96;1537.49;6950.00;0.02;12.66;;;;;27.10;1.00;;;;;;2274821;61;1333;-89
2023/07/28 14:01:53;1409782.00;4.70;2474.48;56125.00;0.19;97.78;;;;;26.50;1.00;;;;;;2274671;61;1367;-91
2023/07/28 14:04:21;383559.00;1.28;661.54;22466.00;0.07;39.54;;;;;26.80;1.00;;;;;;2273029;61;1660;-94
2023/07/28 14:34:16;1394388.00;4.65;2445.92;68564.00;0.23;119.28;;;;;27.60;1.00;;;;;;2274184;61;1009;-91
2023/07/28 14:49:18;640043.00;2.13;1103.41;0.00;0.00;0.62;;;;;28.20;1.00;;;;;;2513360;55;3638;31
2023/07/28 16:07:10;660670.00;2.20;1139.10;56428.00;0.19;98.30;;;;;27.60;1.00;;;;;;2515906;55;3647;31
2023/07/28 16:22:06;2365159.00;7.88;4403.06;77473.00;0.26;134.67;;;;;27.70;1.00;;;;;;2274867;61;1317;-92
2023/07/28 16:29:38;1517722.00;5.06;2676.51;4366.00;0.01;8.19;;;;;27.50;1.00;;;;;;2270991;61;971;-91
2023/07/28 23:16:55;1653549.00;5.51;2935.52;15728.00;0.05;27.87;;;;;23.20;4.50;;;;;;2273992;61;1958;-90
